Gemsa, Egypt
Current Conditions -  °F | °C
As of 5:00 PM on Wednesday 22 Oct 2014 (Local Time) from HEGN Reporting Station
Clear Clear  
Wind Chill: 28°   Ceiling: Unl
Heat Index: 29°   Visibility: 6mi
Dew Point: 17°   Wind: 3mph
Humidity: 51%   Direction: 160°SSE
Pressure: 29.91"   Gusts: NA
Location:  27.63°N, 33.58°E
Report Text: HEGN 221500Z 16003KT CAVOK 28/17 Q1013 NOSIG
Loading
Personal Weather Stations






























Interactive Weather Map
Tropical Storm Tracking
New forecast layout! Learn more

10-Day Weather Forecast

Advertisements
Track Severe Weather on mobile